Main page
METAR-TAF:

METAR-TAF

Airports :

Leknes Airport

Leknes, Norway

latitude: 68-09N, longitude: 013-37E, elevation: 2 m

Current weather observation

The report was made 25 minutes ago, at 15:20 UTC
Wind 6 kt from the West/Southwest, varying between South and West
Temperature 15°C
Humidity 59%
Pressure 1015 hPa
Visibility 10 km or more
no clouds below 1500 m and no cumulonimbus

METAR: ENLK 201520Z 24006KT 190V260 CAVOK 15/07 Q1015

Time: 17:45 (15:45 UTC)


TAF: missing

Weather observations and forecasts of more than 4000 airports (METAR and TAF reports).

The available stations are represented by yellow and red dots on the map.

Hover mouse over dot to see the name of the station.

Then click to see weather observations and forecasts.

To change the map : click on the green buttons with a black cross to zoom in, on the green button with a dash to zoom out, or on the green arrows for adjacent maps.


METAR-TAF: